Time;durP1;ratioP1;P1;durP2;ratioP2;P2;SDS_P1;SDS_P2;PMS_P1;PMS_P2;Temp;Humidity;BMP_temperature;BMP_pressure;BME280_temperature;BME280_humidity;BME280_pressure;Samples;Min_cycle;Max_cycle;Signal;HPM_P1;HPM_P2
2022/11/26 00:00:43;;;;;;;330.40;304.03;;;5.60;33.50;;;;;;5073135;28;20417;-70
2022/11/26 00:03:10;;;;;;;185.00;169.03;;;5.60;33.10;;;;;;5074313;28;20435;-68
2022/11/26 00:05:36;;;;;;;309.77;285.43;;;5.60;33.00;;;;;;5074380;28;20435;-69
2022/11/26 00:08:03;;;;;;;532.63;499.40;;;5.60;33.50;;;;;;5074297;28;20432;-69
2022/11/26 00:10:34;;;;;;;399.57;368.43;;;5.70;33.50;;;;;;5073349;28;20919;-68
2022/11/26 00:13:00;;;;;;;368.93;345.27;;;5.70;33.00;;;;;;5072948;28;20426;-69
2022/11/26 00:15:28;;;;;;;274.83;253.50;;;5.80;32.90;;;;;;5074277;28;20499;-69
2022/11/26 00:17:54;;;;;;;451.60;417.00;;;5.80;32.20;;;;;;5072763;28;20947;-70
2022/11/26 00:20:29;;;;;;;426.37;398.00;;;5.80;31.80;;;;;;5072790;28;20470;-69
2022/11/26 00:22:57;;;;;;;247.43;229.47;;;5.80;32.10;;;;;;5072960;28;20423;-69
2022/11/26 00:25:25;;;;;;;301.07;278.77;;;5.80;32.10;;;;;;5074673;28;21035;-70
2022/11/26 00:27:53;;;;;;;329.60;304.37;;;5.80;32.50;;;;;;5073655;28;20436;-69
2022/11/26 00:30:25;;;;;;;496.53;463.50;;;5.70;32.20;;;;;;5074035;28;20470;-69
2022/11/26 00:32:52;;;;;;;451.60;416.70;;;5.80;32.40;;;;;;5073788;28;20415;-69
2022/11/26 00:35:18;;;;;;;491.67;454.50;;;5.70;32.60;;;;;;5072539;28;20420;-68
2022/11/26 00:37:47;;;;;;;285.33;263.53;;;5.70;33.30;;;;;;5072418;28;20420;-68
2022/11/26 00:40:36;;;;;;;293.70;271.17;;;5.80;33.60;;;;;;5073794;28;20417;-68
2022/11/26 00:43:01;;;;;;;284.70;263.77;;;5.80;32.80;;;;;;5073520;28;20461;-69
2022/11/26 00:45:29;;;;;;;207.27;190.40;;;5.80;33.30;;;;;;5073725;28;20420;-68
2022/11/26 00:47:59;;;;;;;271.80;251.80;;;5.80;32.60;;;;;;5073631;28;20284;-68
2022/11/26 00:50:27;;;;;;;400.90;369.83;;;5.80;33.70;;;;;;5073581;28;20513;-68
2022/11/26 00:52:55;;;;;;;516.33;481.53;;;5.90;32.70;;;;;;5071976;28;20445;-69
2022/11/26 00:55:39;;;;;;;145.93;133.77;;;5.90;32.80;;;;;;5071333;28;20416;-68
2022/11/26 00:58:05;;;;;;;242.00;224.33;;;5.90;32.90;;;;;;5073328;28;20443;-69
2022/11/26 01:00:33;;;;;;;535.10;501.40;;;5.90;33.40;;;;;;5072150;28;20922;-68
2022/11/26 01:02:59;;;;;;;519.03;479.97;;;6.00;33.10;;;;;;5073163;28;20467;-68
2022/11/26 01:05:29;;;;;;;420.60;392.10;;;6.00;32.60;;;;;;5073404;28;20408;-68
2022/11/26 01:07:59;;;;;;;257.43;239.23;;;6.00;32.00;;;;;;5073250;28;20425;-70
2022/11/26 01:10:27;;;;;;;305.93;281.13;;;6.10;31.70;;;;;;5071886;28;20965;-69
2022/11/26 01:12:54;;;;;;;374.17;344.90;;;6.10;31.70;;;;;;5071690;28;20470;-68
2022/11/26 01:15:23;;;;;;;380.73;349.07;;;6.10;31.90;;;;;;5073323;28;20907;-68
2022/11/26 01:17:50;;;;;;;326.60;301.90;;;6.20;32.20;;;;;;5072939;28;20425;-68
2022/11/26 01:20:21;;;;;;;328.70;303.97;;;6.10;32.60;;;;;;5072238;28;20424;-68
2022/11/26 01:22:48;;;;;;;517.30;484.90;;;6.20;33.20;;;;;;5072730;28;20850;-69
2022/11/26 01:25:14;;;;;;;244.03;225.83;;;6.20;33.30;;;;;;5072950;28;20896;-68
2022/11/26 01:27:40;;;;;;;276.93;257.27;;;6.30;33.00;;;;;;5073167;28;20412;-69
2022/11/26 01:30:24;;;;;;;378.37;350.30;;;6.40;32.30;;;;;;5073917;28;20225;-71
2022/11/26 01:32:50;;;;;;;475.37;442.20;;;6.40;32.50;;;;;;5072922;28;20249;-71
2022/11/26 01:35:17;;;;;;;354.13;325.87;;;6.30;32.30;;;;;;5073801;28;20405;-71
2022/11/26 01:37:44;;;;;;;564.60;520.47;;;6.40;32.60;;;;;;5072343;28;20442;-72
2022/11/26 01:40:48;;;;;;;397.67;368.13;;;6.30;32.60;;;;;;5074009;28;21006;-72
2022/11/26 01:43:28;;;;;;;473.40;441.77;;;6.40;32.70;;;;;;5075857;28;20427;-72
2022/11/26 01:45:55;;;;;;;477.03;443.93;;;6.40;31.80;;;;;;5073710;28;20443;-72
2022/11/26 01:48:32;;;;;;;336.13;313.10;;;6.40;32.20;;;;;;5077454;28;20511;-72
2022/11/26 01:51:02;;;;;;;466.30;437.47;;;6.50;32.90;;;;;;5075081;28;20411;-72
2022/11/26 01:53:48;;;;;;;502.10;470.00;;;6.50;32.60;;;;;;5072374;28;20417;-73
2022/11/26 01:56:32;;;;;;;356.37;332.40;;;6.50;32.60;;;;;;5073558;28;20440;-71
2022/11/26 02:01:45;;;;;;;485.70;450.50;;;6.70;31.90;;;;;;5114726;22;20491;-70
2022/11/26 02:04:17;;;;;;;509.60;473.20;;;6.70;31.30;;;;;;5092442;28;20407;-69
2022/11/26 02:06:44;;;;;;;242.23;225.70;;;6.60;32.30;;;;;;5092354;28;20406;-72
2022/11/26 02:09:13;;;;;;;479.67;448.13;;;6.60;32.20;;;;;;5092270;28;20489;-72
2022/11/26 02:11:39;;;;;;;475.27;443.90;;;6.60;32.80;;;;;;5092098;28;20463;-70
2022/11/26 02:14:27;;;;;;;535.10;502.23;;;6.60;32.40;;;;;;5090997;28;20847;-71
2022/11/26 02:17:03;;;;;;;386.93;363.07;;;6.70;32.10;;;;;;5092036;28;20216;-71
2022/11/26 02:19:49;;;;;;;555.00;516.27;;;6.70;32.40;;;;;;5092208;28;20849;-72
2022/11/26 02:22:33;;;;;;;518.80;485.23;;;6.70;32.20;;;;;;5091806;28;20838;-72
2022/11/26 02:25:19;;;;;;;537.60;503.00;;;6.70;31.90;;;;;;5092085;28;20522;-69
2022/11/26 02:28:03;;;;;;;509.70;477.37;;;6.70;32.00;;;;;;5092058;28;20408;-69
2022/11/26 02:30:32;;;;;;;546.17;509.67;;;6.80;32.00;;;;;;5091684;28;20487;-70
2022/11/26 02:33:20;;;;;;;495.70;460.47;;;6.80;31.70;;;;;;5091644;28;20407;-72
2022/11/26 02:35:51;;;;;;;530.40;496.03;;;6.80;31.80;;;;;;5091910;28;20400;-71
2022/11/26 02:38:23;;;;;;;519.23;488.43;;;6.70;31.80;;;;;;5091976;28;20449;-72
2022/11/26 02:40:49;;;;;;;528.10;493.73;;;6.80;32.00;;;;;;5091835;28;20435;-71
2022/11/26 02:43:15;;;;;;;552.27;517.07;;;6.80;32.20;;;;;;5091558;28;20469;-72
2022/11/26 02:45:44;;;;;;;555.40;518.97;;;6.80;32.30;;;;;;5091746;28;20415;-69
2022/11/26 02:48:15;;;;;;;533.50;499.23;;;6.80;32.40;;;;;;5090624;28;20983;-72
2022/11/26 02:50:46;;;;;;;458.73;422.60;;;6.70;32.30;;;;;;5091670;28;20585;-69
2022/11/26 02:53:14;;;;;;;653.00;605.77;;;6.80;32.40;;;;;;5091537;28;20769;-69
2022/11/26 02:55:44;;;;;;;439.00;410.90;;;6.80;32.20;;;;;;5091717;28;20415;-71
2022/11/26 02:58:10;;;;;;;514.13;481.23;;;6.70;32.60;;;;;;5091821;28;20419;-71
2022/11/26 03:00:39;;;;;;;584.90;543.13;;;6.70;32.50;;;;;;5091508;28;20846;-71
2022/11/26 03:03:22;;;;;;;555.07;518.00;;;6.70;32.60;;;;;;5091504;28;20165;-71
2022/11/26 03:05:55;;;;;;;657.40;609.30;;;6.70;32.70;;;;;;5090472;28;20796;-71
2022/11/26 03:08:21;;;;;;;583.67;543.53;;;6.60;32.70;;;;;;5091669;28;20413;-71
2022/11/26 03:10:47;;;;;;;518.10;485.50;;;6.60;33.40;;;;;;5091748;28;20474;-71
2022/11/26 03:13:12;;;;;;;535.23;501.43;;;6.60;33.70;;;;;;5091370;28;20987;-71
2022/11/26 03:15:38;;;;;;;375.67;349.93;;;6.70;33.70;;;;;;5090218;28;20181;-71
2022/11/26 03:18:03;;;;;;;428.70;399.00;;;6.60;33.70;;;;;;5091970;28;20204;-71
2022/11/26 03:20:29;;;;;;;637.07;592.27;;;6.70;33.70;;;;;;5094105;28;20225;-71
2022/11/26 03:22:54;;;;;;;562.70;527.33;;;6.60;33.80;;;;;;5095212;28;20177;-71
2022/11/26 03:25:20;;;;;;;522.67;489.33;;;6.60;33.90;;;;;;5094096;28;20185;-71
2022/11/26 03:27:45;;;;;;;565.77;526.97;;;6.70;33.90;;;;;;5095346;28;20253;-69
2022/11/26 03:30:11;;;;;;;545.30;512.57;;;6.70;34.20;;;;;;5095163;28;20203;-69
2022/11/26 03:32:37;;;;;;;556.40;518.83;;;6.60;34.00;;;;;;5094944;28;20201;-69
2022/11/26 03:35:03;;;;;;;457.77;427.33;;;6.70;34.40;;;;;;5095626;28;20183;-72
2022/11/26 03:37:29;;;;;;;536.17;502.07;;;6.70;34.40;;;;;;5095209;28;20209;-70
2022/11/26 03:39:54;;;;;;;538.20;502.23;;;6.70;34.40;;;;;;5093728;28;20891;-70
2022/11/26 03:42:20;;;;;;;535.73;501.30;;;6.70;34.40;;;;;;5094791;28;20188;-71
2022/11/26 03:44:46;;;;;;;531.30;497.60;;;6.70;34.40;;;;;;5093352;28;20653;-71
2022/11/26 03:47:11;;;;;;;549.43;515.03;;;6.70;34.40;;;;;;5093696;28;20181;-72
2022/11/26 03:49:37;;;;;;;535.07;499.53;;;6.70;34.30;;;;;;5094757;28;20249;-71
2022/11/26 03:52:02;;;;;;;585.47;545.30;;;6.60;34.30;;;;;;5094589;28;20196;-71
2022/11/26 03:54:28;;;;;;;558.90;522.87;;;6.60;34.30;;;;;;5095024;28;20181;-70
2022/11/26 03:56:54;;;;;;;566.40;528.67;;;6.60;34.30;;;;;;5094848;28;20181;-70
2022/11/26 03:59:19;;;;;;;561.77;524.97;;;6.60;34.30;;;;;;5094891;28;20469;-72
2022/11/26 04:01:45;;;;;;;534.00;499.70;;;6.50;34.20;;;;;;5094324;28;20212;-72
2022/11/26 04:04:10;;;;;;;610.77;572.30;;;6.60;34.50;;;;;;5094693;28;20256;-70
2022/11/26 04:06:36;;;;;;;246.33;226.57;;;6.60;34.70;;;;;;5093611;28;20644;-70
2022/11/26 04:09:02;;;;;;;569.50;533.23;;;6.60;34.30;;;;;;5093246;28;20218;-70
2022/11/26 04:11:28;;;;;;;602.93;564.33;;;6.60;34.80;;;;;;5094308;28;20185;-71
2022/11/26 04:13:53;;;;;;;542.60;505.13;;;6.60;34.70;;;;;;5094372;28;20416;-70
2022/11/26 04:16:19;;;;;;;554.33;516.73;;;6.70;34.40;;;;;;5094488;28;20177;-71
2022/11/26 04:18:45;;;;;;;556.10;521.20;;;6.70;34.60;;;;;;5094293;28;20183;-71
2022/11/26 04:21:11;;;;;;;617.73;578.57;;;6.70;34.40;;;;;;5094242;28;20545;-72
2022/11/26 04:23:36;;;;;;;610.13;566.43;;;6.70;34.40;;;;;;5094111;28;21017;-71
2022/11/26 04:26:02;;;;;;;579.27;536.40;;;6.60;34.30;;;;;;5094549;28;20177;-71
2022/11/26 04:28:28;;;;;;;690.07;640.23;;;6.50;34.20;;;;;;5094123;28;20644;-71
2022/11/26 04:30:53;;;;;;;642.70;597.27;;;6.40;35.00;;;;;;5092781;28;20280;-71
2022/11/26 04:33:19;;;;;;;502.00;470.17;;;6.30;35.20;;;;;;5093862;28;20538;-71
2022/11/26 04:35:45;;;;;;;616.60;573.50;;;6.10;35.80;;;;;;5094038;28;20259;-71
2022/11/26 04:38:11;;;;;;;608.23;568.10;;;6.10;36.10;;;;;;5094072;28;20454;-71
2022/11/26 04:40:36;;;;;;;581.47;542.23;;;6.10;36.40;;;;;;5094107;28;20205;-71
2022/11/26 04:43:02;;;;;;;620.70;575.97;;;6.10;36.50;;;;;;5093613;28;20183;-71
2022/11/26 04:45:28;;;;;;;594.83;553.33;;;6.00;36.30;;;;;;5093839;28;20426;-72
2022/11/26 04:47:54;;;;;;;602.03;559.70;;;5.90;35.90;;;;;;5093849;28;20189;-71
2022/11/26 04:50:19;;;;;;;471.90;438.63;;;5.80;36.50;;;;;;5093439;28;20213;-71
2022/11/26 04:52:47;;;;;;;528.63;494.20;;;5.70;36.60;;;;;;5092216;28;20428;-71
2022/11/26 04:55:13;;;;;;;516.47;483.03;;;5.70;37.00;;;;;;5093734;28;20185;-72
2022/11/26 04:57:39;;;;;;;564.67;528.07;;;5.70;37.60;;;;;;5093615;28;20422;-69
2022/11/26 05:00:06;;;;;;;326.63;304.27;;;5.70;38.30;;;;;;5093416;28;20958;-70
2022/11/26 05:02:31;;;;;;;429.00;396.87;;;5.70;38.70;;;;;;5091898;28;20198;-70
2022/11/26 05:05:00;;;;;;;544.20;506.43;;;5.80;38.30;;;;;;5093431;28;20810;-71
2022/11/26 05:07:26;;;;;;;518.63;487.07;;;5.80;38.30;;;;;;5093444;28;20177;-71
2022/11/26 05:09:51;;;;;;;569.83;533.77;;;5.80;38.30;;;;;;5091871;28;20470;-72
2022/11/26 05:12:17;;;;;;;602.03;563.00;;;5.70;38.70;;;;;;5092000;28;20193;-72
2022/11/26 05:14:42;;;;;;;546.20;511.40;;;5.80;38.80;;;;;;5093555;28;20220;-72
2022/11/26 05:17:08;;;;;;;462.93;432.33;;;5.80;38.80;;;;;;5093229;28;20199;-72
2022/11/26 05:19:33;;;;;;;716.07;666.20;;;5.90;38.60;;;;;;5093095;28;20184;-71
2022/11/26 05:21:59;;;;;;;559.03;522.87;;;5.90;38.10;;;;;;5093009;28;20182;-72
2022/11/26 05:24:25;;;;;;;580.83;543.60;;;6.00;38.40;;;;;;5093183;28;20181;-72
2022/11/26 05:26:50;;;;;;;337.07;315.80;;;6.00;37.40;;;;;;5093044;28;20181;-72
2022/11/26 05:29:16;;;;;;;347.27;320.37;;;6.00;37.50;;;;;;5092877;28;20201;-72
2022/11/26 05:31:41;;;;;;;380.77;355.73;;;6.10;37.10;;;;;;5092436;28;20204;-72
2022/11/26 05:34:07;;;;;;;514.67;478.40;;;6.00;37.00;;;;;;5092962;28;20185;-72
2022/11/26 05:36:32;;;;;;;567.57;527.60;;;6.00;36.40;;;;;;5091611;28;20184;-72
2022/11/26 05:38:58;;;;;;;539.67;505.30;;;6.00;36.30;;;;;;5092845;28;20212;-72
2022/11/26 05:41:24;;;;;;;605.90;566.60;;;5.90;37.00;;;;;;5092184;28;20193;-71
2022/11/26 05:43:49;;;;;;;555.93;520.37;;;6.00;37.50;;;;;;5092501;28;20181;-71
2022/11/26 05:46:17;;;;;;;585.27;547.77;;;6.00;37.40;;;;;;5092438;28;20185;-72
2022/11/26 05:48:43;;;;;;;373.37;347.53;;;6.10;37.20;;;;;;5092196;28;20702;-72
2022/11/26 05:51:09;;;;;;;257.20;235.50;;;6.10;36.70;;;;;;5091296;28;20443;-72
2022/11/26 05:53:34;;;;;;;538.97;505.17;;;6.20;35.80;;;;;;5092637;28;21005;-72
2022/11/26 05:56:00;;;;;;;456.77;429.43;;;6.20;35.60;;;;;;5092579;28;20687;-72
2022/11/26 05:58:25;;;;;;;589.90;551.17;;;6.20;36.50;;;;;;5092460;28;20181;-72
2022/11/26 06:00:51;;;;;;;419.00;392.70;;;6.30;36.30;;;;;;5091911;28;20483;-72
2022/11/26 06:03:17;;;;;;;499.67;466.00;;;6.30;36.00;;;;;;5092002;28;20594;-71
2022/11/26 06:05:42;;;;;;;481.50;451.67;;;6.40;35.80;;;;;;5092319;28;20200;-71
2022/11/26 06:08:08;;;;;;;579.63;540.50;;;6.40;34.90;;;;;;5092298;28;20248;-71
2022/11/26 06:10:34;;;;;;;548.27;514.87;;;6.40;35.50;;;;;;5092267;28;20721;-71
2022/11/26 06:12:59;;;;;;;605.00;567.30;;;6.40;35.80;;;;;;5092281;28;20165;-71
2022/11/26 06:15:25;;;;;;;713.27;659.47;;;6.40;35.50;;;;;;5092640;28;20200;-71
2022/11/26 06:17:50;;;;;;;558.80;523.97;;;6.50;35.20;;;;;;5090862;28;20182;-71
2022/11/26 06:20:16;;;;;;;575.70;538.30;;;6.50;34.90;;;;;;5092150;28;20212;-71
2022/11/26 06:22:43;;;;;;;426.63;399.33;;;6.50;34.90;;;;;;5092018;28;20656;-71
2022/11/26 06:25:12;;;;;;;562.77;527.80;;;6.50;34.20;;;;;;5092139;28;20197;-70
2022/11/26 06:27:38;;;;;;;551.90;515.43;;;6.60;34.30;;;;;;5091983;28;20925;-71
2022/11/26 06:30:04;;;;;;;637.07;591.97;;;6.60;34.30;;;;;;5090510;28;20463;-71
2022/11/26 06:32:30;;;;;;;456.17;423.70;;;6.60;34.30;;;;;;5091899;28;20422;-71
2022/11/26 06:34:56;;;;;;;581.20;542.30;;;6.60;34.20;;;;;;5091971;28;20415;-71
2022/11/26 06:37:23;;;;;;;516.43;482.77;;;6.50;34.00;;;;;;5091892;28;20419;-72
2022/11/26 06:39:49;;;;;;;567.03;529.57;;;6.50;34.20;;;;;;5091830;28;20447;-71
2022/11/26 06:42:14;;;;;;;588.93;552.03;;;6.40;34.10;;;;;;5091572;28;20472;-72
2022/11/26 06:44:40;;;;;;;621.83;578.20;;;6.40;34.10;;;;;;5090563;28;20468;-71
2022/11/26 06:47:10;;;;;;;541.27;507.50;;;6.40;34.50;;;;;;5090521;28;20181;-72
2022/11/26 06:49:35;;;;;;;562.07;524.83;;;6.30;34.80;;;;;;5091566;28;20189;-69
2022/11/26 06:52:01;;;;;;;542.60;509.30;;;6.30;34.50;;;;;;5090447;28;20430;-73
2022/11/26 06:54:26;;;;;;;565.53;526.80;;;6.30;34.60;;;;;;5094648;28;20176;-69
2022/11/26 06:56:52;;;;;;;762.43;701.07;;;6.30;34.00;;;;;;5094557;28;20272;-70
2022/11/26 06:59:17;;;;;;;775.63;711.93;;;6.30;34.00;;;;;;5095859;28;20177;-70
2022/11/26 07:01:43;;;;;;;425.67;391.90;;;6.20;33.60;;;;;;5095433;28;20220;-70
2022/11/26 07:04:10;;;;;;;669.90;617.30;;;6.10;33.90;;;;;;5095837;28;20188;-70
2022/11/26 07:06:36;;;;;;;580.77;541.47;;;6.10;33.90;;;;;;5095739;28;20191;-70
2022/11/26 07:09:05;;;;;;;531.47;490.80;;;6.10;33.90;;;;;;5094388;28;20459;-70
2022/11/26 07:11:31;;;;;;;529.03;496.47;;;6.20;34.20;;;;;;5094195;28;20196;-70
2022/11/26 07:13:56;;;;;;;493.97;456.30;;;6.20;34.00;;;;;;5094163;28;20468;-70
2022/11/26 07:16:22;;;;;;;585.20;538.83;;;6.30;33.60;;;;;;5095580;28;20411;-70
2022/11/26 07:18:50;;;;;;;731.80;674.30;;;6.20;33.40;;;;;;5095603;28;20192;-70
2022/11/26 07:21:16;;;;;;;331.67;305.37;;;6.20;33.00;;;;;;5095726;28;20698;-69
2022/11/26 07:23:41;;;;;;;539.90;500.93;;;6.20;33.00;;;;;;5095270;28;20942;-70
2022/11/26 07:26:09;;;;;;;509.93;477.07;;;6.10;31.60;;;;;;5095411;28;20495;-69
2022/11/26 07:28:35;;;;;;;477.53;447.03;;;6.00;32.40;;;;;;5095309;28;20203;-70
2022/11/26 07:31:02;;;;;;;568.10;523.77;;;6.00;32.30;;;;;;5095568;28;20504;-69
2022/11/26 07:33:28;;;;;;;481.17;442.73;;;5.90;32.80;;;;;;5095025;28;20199;-69
2022/11/26 07:35:57;;;;;;;547.00;509.63;;;5.80;33.20;;;;;;5095325;28;20411;-70
2022/11/26 07:38:23;;;;;;;468.23;434.13;;;5.80;33.10;;;;;;5095148;28;20781;-72
2022/11/26 07:40:48;;;;;;;311.93;287.90;;;5.80;33.00;;;;;;5095052;28;20423;-70
2022/11/26 07:43:14;;;;;;;698.70;645.93;;;5.80;32.30;;;;;;5094944;28;20197;-70
2022/11/26 07:45:39;;;;;;;395.87;364.87;;;5.80;32.50;;;;;;5095045;28;20179;-70
2022/11/26 07:48:05;;;;;;;409.83;383.43;;;5.80;32.30;;;;;;5095042;28;20177;-70
2022/11/26 07:50:30;;;;;;;494.73;460.67;;;5.90;32.80;;;;;;5094922;28;20209;-72
2022/11/26 07:52:56;;;;;;;446.90;418.47;;;6.00;31.30;;;;;;5094663;28;20250;-70
2022/11/26 07:55:21;;;;;;;250.50;230.60;;;6.00;32.00;;;;;;5094849;28;20579;-69
2022/11/26 07:57:47;;;;;;;446.67;413.20;;;5.90;32.40;;;;;;5093413;28;20276;-69
2022/11/26 08:00:13;;;;;;;355.47;332.20;;;5.90;31.80;;;;;;5095375;28;20269;-69
2022/11/26 08:02:39;;;;;;;454.93;424.57;;;6.00;32.80;;;;;;5094371;28;20678;-69
2022/11/26 08:05:05;;;;;;;723.70;666.83;;;6.00;32.70;;;;;;5094346;28;20453;-69
2022/11/26 08:07:31;;;;;;;562.07;520.97;;;6.10;32.70;;;;;;5094630;28;20575;-70
2022/11/26 08:09:56;;;;;;;562.97;519.23;;;6.10;31.40;;;;;;5094421;28;20470;-70
2022/11/26 08:12:22;;;;;;;371.20;344.57;;;6.10;31.80;;;;;;5094213;28;20264;-70
2022/11/26 08:14:47;;;;;;;404.93;377.47;;;6.10;32.10;;;;;;5095109;28;20262;-70
2022/11/26 08:17:13;;;;;;;593.00;549.97;;;6.10;31.60;;;;;;5094412;28;20204;-70
2022/11/26 08:19:41;;;;;;;610.97;568.43;;;6.10;30.60;;;;;;5094369;28;20363;-70
2022/11/26 08:22:06;;;;;;;610.63;565.63;;;6.20;30.10;;;;;;5094136;28;20227;-70
2022/11/26 08:24:34;;;;;;;622.10;578.03;;;6.30;29.80;;;;;;5094202;28;20984;-70
2022/11/26 08:27:02;;;;;;;374.73;349.47;;;6.40;29.30;;;;;;5094031;28;20181;-70
2022/11/26 08:29:28;;;;;;;653.37;609.17;;;6.40;29.30;;;;;;5094061;28;20509;-69
2022/11/26 08:31:53;;;;;;;426.80;396.10;;;6.50;28.50;;;;;;5096182;28;20451;-70
2022/11/26 08:34:19;;;;;;;614.70;569.93;;;6.50;28.70;;;;;;5093959;28;20177;-70
2022/11/26 08:36:45;;;;;;;272.23;252.27;;;6.60;28.20;;;;;;5094027;28;20181;-70
2022/11/26 08:39:16;;;;;;;358.00;335.63;;;6.60;27.40;;;;;;5093682;28;20215;-69
2022/11/26 08:41:42;;;;;;;403.77;379.97;;;6.70;27.40;;;;;;5093381;28;20439;-70
2022/11/26 08:44:08;;;;;;;529.80;493.77;;;6.80;26.70;;;;;;5093580;28;20419;-69
2022/11/26 08:46:38;;;;;;;289.47;269.97;;;6.80;27.20;;;;;;5093578;28;20420;-70
2022/11/26 08:49:04;;;;;;;540.37;502.40;;;6.90;25.70;;;;;;5093768;28;20198;-70
2022/11/26 08:51:30;;;;;;;270.83;252.27;;;7.00;25.60;;;;;;5093811;28;20439;-71
2022/11/26 08:53:55;;;;;;;635.03;591.23;;;7.10;25.60;;;;;;5094768;28;20934;-69
2022/11/26 08:56:21;;;;;;;180.10;165.87;;;7.00;24.90;;;;;;5095007;28;20185;-69
2022/11/26 08:58:47;;;;;;;397.63;369.83;;;7.10;24.60;;;;;;5094527;28;20184;-71
2022/11/26 09:01:25;;;;;;;222.80;207.50;;;6.90;25.20;;;;;;5091770;28;21148;-70
2022/11/26 09:03:52;;;;;;;430.03;404.23;;;6.90;25.50;;;;;;5093440;28;20422;-70
2022/11/26 09:06:19;;;;;;;408.93;379.43;;;6.90;25.50;;;;;;5087401;28;20448;-70
2022/11/26 09:11:31;;;;;;;322.37;302.10;;;7.30;24.50;;;;;;5101229;28;20978;-69
2022/11/26 09:13:57;;;;;;;294.83;274.67;;;7.50;24.00;;;;;;5072844;28;20415;-70
2022/11/26 09:16:24;;;;;;;287.07;268.23;;;7.70;23.70;;;;;;5072136;28;20418;-70
2022/11/26 09:18:50;;;;;;;162.47;149.83;;;7.70;23.10;;;;;;5082181;28;20447;-70
2022/11/26 09:21:16;;;;;;;402.70;377.70;;;7.70;23.60;;;;;;5086116;28;20942;-70
2022/11/26 09:23:41;;;;;;;171.20;157.70;;;7.90;23.30;;;;;;5089127;28;20418;-70
2022/11/26 09:26:07;;;;;;;145.83;133.30;;;8.10;22.70;;;;;;5092787;28;20178;-70
2022/11/26 09:28:32;;;;;;;506.27;478.07;;;8.20;22.40;;;;;;5092983;28;20325;-70
2022/11/26 09:30:59;;;;;;;492.57;464.73;;;8.20;22.90;;;;;;5092811;28;20191;-70
2022/11/26 09:33:26;;;;;;;492.97;464.27;;;8.20;23.30;;;;;;5091338;28;20620;-70
2022/11/26 09:35:51;;;;;;;507.83;477.80;;;8.30;23.30;;;;;;5089182;28;20418;-70
2022/11/26 09:38:17;;;;;;;447.67;420.77;;;8.30;23.60;;;;;;5092565;28;20410;-70
2022/11/26 09:41:05;;;;;;;504.47;475.13;;;8.40;23.40;;;;;;5089286;28;20214;-70
2022/11/26 09:43:54;;;;;;;530.67;498.87;;;8.40;23.60;;;;;;5084761;28;20193;-70
2022/11/26 09:46:30;;;;;;;475.93;443.50;;;8.40;23.70;;;;;;5092729;28;20443;-70
2022/11/26 09:48:58;;;;;;;315.53;291.17;;;8.30;23.70;;;;;;5092565;28;20452;-70
2022/11/26 09:51:24;;;;;;;665.37;620.00;;;8.20;23.40;;;;;;5087537;28;20453;-71
2022/11/26 09:53:51;;;;;;;448.90;422.80;;;8.00;23.80;;;;;;5071996;28;20424;-70
2022/11/26 09:56:23;;;;;;;486.33;458.00;;;7.80;24.40;;;;;;5089574;28;20416;-70
2022/11/26 09:59:01;;;;;;;357.23;334.37;;;7.80;24.80;;;;;;5092434;28;20407;-71
2022/11/26 10:01:29;;;;;;;589.00;548.40;;;7.70;25.00;;;;;;5092149;28;20518;-70
2022/11/26 10:03:54;;;;;;;460.17;433.03;;;7.70;24.80;;;;;;5092093;28;20427;-71
2022/11/26 10:06:26;;;;;;;490.00;461.73;;;7.70;25.20;;;;;;5092270;28;20920;-70
2022/11/26 10:09:02;;;;;;;394.20;367.03;;;7.70;24.70;;;;;;5092166;28;20255;-70
2022/11/26 10:12:01;;;;;;;508.47;472.00;;;7.70;25.00;;;;;;5071871;28;20442;-70
2022/11/26 10:14:38;;;;;;;473.40;441.83;;;7.80;25.00;;;;;;5072256;28;20414;-70
2022/11/26 10:17:35;;;;;;;423.33;396.10;;;7.80;24.60;;;;;;5072012;28;20419;-69
2022/11/26 10:20:33;;;;;;;177.37;163.00;;;7.80;24.80;;;;;;5072074;28;20435;-70
2022/11/26 10:23:10;;;;;;;406.40;378.50;;;7.90;25.30;;;;;;5071571;28;20514;-73
2022/11/26 10:25:47;;;;;;;343.37;320.90;;;7.90;24.80;;;;;;5090602;28;20448;-71
2022/11/26 10:28:30;;;;;;;500.40;464.80;;;8.10;24.30;;;;;;5090756;28;20440;-71
2022/11/26 10:31:01;;;;;;;609.00;565.73;;;8.10;23.70;;;;;;5092098;28;20438;-71
2022/11/26 10:33:33;;;;;;;397.37;373.53;;;8.10;23.20;;;;;;5091920;28;20409;-71
2022/11/26 10:35:58;;;;;;;358.23;331.87;;;8.10;23.40;;;;;;5091613;28;20413;-71
2022/11/26 10:38:24;;;;;;;515.17;486.60;;;8.10;23.60;;;;;;5092039;28;20411;-71
2022/11/26 10:40:49;;;;;;;380.73;357.67;;;8.10;23.50;;;;;;5091464;28;20277;-72
2022/11/26 10:43:22;;;;;;;386.83;361.80;;;8.20;23.50;;;;;;5074630;28;20286;-71
2022/11/26 10:45:54;;;;;;;488.20;460.33;;;8.20;22.90;;;;;;5071775;28;20172;-71
2022/11/26 10:48:33;;;;;;;443.50;413.20;;;8.30;23.60;;;;;;5071674;28;20406;-71
2022/11/26 10:51:15;;;;;;;601.10;559.93;;;8.30;22.20;;;;;;5085058;28;20452;-70
2022/11/26 10:54:03;;;;;;;267.90;249.07;;;8.30;22.20;;;;;;5086804;28;20406;-70
2022/11/26 10:56:39;;;;;;;398.17;370.77;;;8.30;22.20;;;;;;5081977;28;20429;-71
2022/11/26 10:59:17;;;;;;;613.40;572.37;;;8.30;22.20;;;;;;5091827;28;20406;-71
2022/11/26 11:01:42;;;;;;;380.47;353.67;;;8.40;21.30;;;;;;5091077;28;20464;-70
2022/11/26 11:04:30;;;;;;;606.67;570.03;;;8.40;21.80;;;;;;5089907;28;20502;-71
2022/11/26 11:06:56;;;;;;;601.87;562.03;;;8.40;21.90;;;;;;5071602;28;20177;-71
2022/11/26 11:09:34;;;;;;;441.30;413.67;;;8.40;21.00;;;;;;5069960;28;20454;-71
2022/11/26 11:12:18;;;;;;;314.13;295.20;;;8.50;21.00;;;;;;5071052;28;20461;-71
2022/11/26 11:14:45;;;;;;;595.27;561.30;;;8.50;21.00;;;;;;5071472;28;20493;-71
2022/11/26 11:17:23;;;;;;;371.93;346.50;;;8.60;21.30;;;;;;5078898;28;20425;-71
2022/11/26 11:19:49;;;;;;;452.40;426.50;;;8.70;21.10;;;;;;5091530;28;20426;-71
2022/11/26 11:22:19;;;;;;;301.70;283.70;;;8.80;21.00;;;;;;5091241;28;20409;-71
2022/11/26 11:24:45;;;;;;;395.90;372.00;;;8.90;21.10;;;;;;5090311;28;20184;-71
2022/11/26 11:27:24;;;;;;;637.23;601.23;;;8.90;20.30;;;;;;5091779;28;20411;-70
2022/11/26 11:29:50;;;;;;;294.67;275.77;;;8.90;20.70;;;;;;5089695;28;20475;-72
2022/11/26 11:32:36;;;;;;;588.80;554.07;;;9.00;20.00;;;;;;5091283;28;20926;-71
2022/11/26 11:35:25;;;;;;;454.77;425.37;;;9.10;19.30;;;;;;5091460;28;20905;-70
2022/11/26 11:37:54;;;;;;;525.77;493.17;;;9.00;18.40;;;;;;5091339;28;20422;-70
2022/11/26 11:40:27;;;;;;;408.67;385.70;;;9.00;18.60;;;;;;5093726;28;20480;-73
2022/11/26 11:42:58;;;;;;;513.20;482.07;;;9.10;19.40;;;;;;5094824;28;20414;-73
2022/11/26 11:45:35;;;;;;;478.73;449.47;;;9.10;19.20;;;;;;5094818;28;20491;-73
2022/11/26 11:48:42;;;;;;;468.07;439.90;;;9.20;18.60;;;;;;5095083;28;20403;-73
2022/11/26 11:51:28;;;;;;;482.70;455.67;;;9.20;17.10;;;;;;5076097;28;20805;-73
2022/11/26 11:53:59;;;;;;;379.07;357.23;;;9.20;17.10;;;;;;5074490;28;20477;-73
2022/11/26 11:56:42;;;;;;;427.13;402.57;;;9.30;16.80;;;;;;5074599;28;20414;-73
2022/11/26 11:59:56;;;;;;;449.13;424.40;;;9.40;16.60;;;;;;5074377;28;20420;-73
2022/11/26 12:03:00;;;;;;;78.60;54.40;;;9.40;14.80;;;;;;5072869;28;20431;-73
2022/11/26 12:05:47;;;;;;;474.50;446.93;;;9.50;14.50;;;;;;5067796;28;20416;-73
2022/11/26 12:08:43;;;;;;;513.27;483.40;;;9.50;14.50;;;;;;5073019;28;20423;-73
2022/11/26 12:11:19;;;;;;;342.63;322.20;;;9.50;15.40;;;;;;5074233;28;20443;-73
2022/11/26 12:13:50;;;;;;;305.23;286.27;;;9.40;15.50;;;;;;5072659;28;20463;-73
2022/11/26 12:16:17;;;;;;;513.90;481.83;;;9.50;15.60;;;;;;5074296;28;20416;-73
2022/11/26 12:18:52;;;;;;;378.67;355.33;;;9.40;15.60;;;;;;5074162;28;20423;-73
2022/11/26 12:21:38;;;;;;;360.87;340.07;;;9.30;15.20;;;;;;5074031;28;20525;-73
2022/11/26 12:24:08;;;;;;;445.57;420.10;;;9.20;15.60;;;;;;5072871;28;20454;-73
2022/11/26 12:26:39;;;;;;;320.63;300.10;;;9.00;15.70;;;;;;5076360;28;20741;-73
2022/11/26 12:29:29;;;;;;;451.00;426.70;;;9.00;16.20;;;;;;5094183;28;20554;-73
2022/11/26 12:32:10;;;;;;;289.73;272.10;;;9.00;18.50;;;;;;5093698;28;20408;-73
2022/11/26 12:34:48;;;;;;;473.60;444.73;;;8.90;15.80;;;;;;5094094;28;20418;-74
2022/11/26 12:37:22;;;;;;;454.73;429.63;;;8.80;16.00;;;;;;5094535;28;20413;-73